createdAt,value
2017-05-21T00:00:35.177Z,0
2017-05-21T00:01:45.115Z,0
2017-05-21T00:02:55.035Z,0
2017-05-21T00:04:04.641Z,0
2017-05-21T00:05:14.235Z,0
2017-05-21T00:06:24.143Z,0
2017-05-21T00:07:33.748Z,0
2017-05-21T00:08:43.669Z,0
2017-05-21T00:09:53.286Z,0
2017-05-21T00:11:03.197Z,0
2017-05-21T00:12:12.482Z,0
2017-05-21T00:13:22.082Z,0
2017-05-21T00:14:32.354Z,0
2017-05-21T00:15:41.974Z,0
2017-05-21T00:16:51.899Z,0
2017-05-21T00:18:02.117Z,0
2017-05-21T00:19:12.035Z,0
2017-05-21T00:20:21.647Z,0
2017-05-21T00:21:31.261Z,0
2017-05-21T00:22:41.492Z,0
2017-05-21T00:23:51.404Z,0
2017-05-21T00:25:01.040Z,0
2017-05-21T00:26:10.650Z,0
2017-05-21T00:27:20.865Z,0
2017-05-21T00:28:30.772Z,0
2017-05-21T00:29:40.711Z,0
2017-05-21T00:30:50.623Z,0
2017-05-21T00:32:00.533Z,0
2017-05-21T00:33:10.160Z,0
2017-05-21T00:34:20.097Z,0
2017-05-21T00:35:30.321Z,0
2017-05-21T00:36:40.232Z,0
2017-05-21T00:37:50.457Z,0
2017-05-21T00:39:00.373Z,0
2017-05-21T00:40:10.584Z,0
2017-05-21T00:41:20.505Z,0
2017-05-21T00:42:30.400Z,0
2017-05-21T00:43:40.002Z,0
2017-05-21T00:44:49.614Z,0
2017-05-21T00:46:00.306Z,0
2017-05-21T00:47:10.639Z,0
2017-05-21T00:48:21.262Z,0
2017-05-21T00:49:30.558Z,0
2017-05-21T00:50:40.138Z,0
2017-05-21T00:51:50.354Z,0
2017-05-21T00:52:59.677Z,0
2017-05-21T00:54:10.019Z,0
2017-05-21T00:55:19.386Z,0
2017-05-21T00:56:30.000Z,0
2017-05-21T00:57:40.018Z,0
2017-05-21T00:58:50.982Z,0
2017-05-21T01:00:01.347Z,0
2017-05-21T01:01:10.964Z,0
2017-05-21T01:02:21.282Z,0
2017-05-21T01:03:31.521Z,0
2017-05-21T01:04:41.446Z,0
2017-05-21T01:05:51.415Z,0
2017-05-21T01:07:01.343Z,0
2017-05-21T01:08:10.523Z,0
2017-05-21T01:09:20.541Z,0
2017-05-21T01:10:30.757Z,0
2017-05-21T01:11:40.667Z,0
2017-05-21T01:12:50.327Z,0
2017-05-21T01:13:59.644Z,0
2017-05-21T01:15:09.555Z,0
2017-05-21T01:16:19.170Z,0
2017-05-21T01:17:29.120Z,0
2017-05-21T01:18:39.339Z,0
2017-05-21T01:19:49.301Z,0
2017-05-21T01:20:59.589Z,0
2017-05-21T01:22:09.500Z,0
2017-05-21T01:23:19.404Z,0
2017-05-21T01:24:29.018Z,0
2017-05-21T01:25:38.993Z,0
2017-05-21T01:26:48.925Z,0
2017-05-21T01:27:59.149Z,0
2017-05-21T01:29:09.072Z,0
2017-05-21T01:30:18.970Z,0
2017-05-21T01:31:28.589Z,0
2017-05-21T01:32:38.186Z,0
2017-05-21T01:33:47.492Z,0
2017-05-21T01:34:57.457Z,0
2017-05-21T01:36:07.052Z,0
2017-05-21T01:37:17.270Z,0
2017-05-21T01:38:27.184Z,0
2017-05-21T01:39:36.805Z,0
2017-05-21T01:40:47.018Z,0
2017-05-21T01:41:56.926Z,0
2017-05-21T01:43:07.158Z,0
2017-05-21T01:44:16.765Z,0
2017-05-21T01:45:26.676Z,0
2017-05-21T01:46:36.586Z,0
2017-05-21T01:47:46.868Z,0
2017-05-21T01:48:56.471Z,0
2017-05-21T01:50:06.399Z,0
2017-05-21T01:51:15.394Z,0
2017-05-21T01:52:24.997Z,0
2017-05-21T01:53:34.661Z,0
2017-05-21T01:54:44.257Z,0
2017-05-21T01:55:54.175Z,0
2017-05-21T01:57:03.484Z,0
2017-05-21T01:58:13.394Z,0
2017-05-21T01:59:23.306Z,0
2017-05-21T02:00:33.534Z,0
2017-05-21T02:01:43.460Z,0
2017-05-21T02:02:53.383Z,0
2017-05-21T02:04:03.300Z,0
2017-05-21T02:05:12.904Z,0
2017-05-21T02:06:22.515Z,0
2017-05-21T02:07:31.803Z,0
2017-05-21T02:08:41.425Z,0
2017-05-21T02:09:51.011Z,0
2017-05-21T02:11:00.911Z,0
2017-05-21T02:12:10.852Z,0
2017-05-21T02:13:20.457Z,0
2017-05-21T02:14:30.061Z,0
2017-05-21T02:15:39.961Z,0
2017-05-21T02:16:49.553Z,0
2017-05-21T02:17:59.778Z,0
2017-05-21T02:19:09.434Z,0
2017-05-21T02:20:19.350Z,0
2017-05-21T02:21:28.642Z,0
2017-05-21T02:22:38.229Z,0
2017-05-21T02:23:48.155Z,0
2017-05-21T02:24:58.371Z,0
2017-05-21T02:26:08.592Z,0
2017-05-21T02:27:18.809Z,0
2017-05-21T02:28:28.715Z,0
2017-05-21T02:29:38.925Z,0
2017-05-21T02:30:48.529Z,0
2017-05-21T02:31:58.444Z,0
2017-05-21T02:33:08.350Z,0
2017-05-21T02:34:17.960Z,0
2017-05-21T02:35:28.182Z,0
2017-05-21T02:36:37.474Z,0
2017-05-21T02:37:47.072Z,0
2017-05-21T02:38:56.978Z,0
2017-05-21T02:40:07.194Z,0
2017-05-21T02:41:17.416Z,0
2017-05-21T02:42:27.324Z,0
2017-05-21T02:43:37.224Z,0
2017-05-21T02:44:47.438Z,0
2017-05-21T02:45:57.346Z,0
2017-05-21T02:47:07.244Z,0
2017-05-21T02:48:17.172Z,0
2017-05-21T02:49:27.408Z,0
2017-05-21T02:50:37.321Z,0
2017-05-21T02:51:47.524Z,0
2017-05-21T02:52:57.763Z,0
2017-05-21T02:54:07.980Z,0
2017-05-21T02:55:18.207Z,0
2017-05-21T02:56:28.131Z,0
2017-05-21T02:57:38.374Z,0
2017-05-21T02:58:48.325Z,0
2017-05-21T02:59:58.536Z,0
2017-05-21T03:01:08.451Z,0
2017-05-21T03:02:18.675Z,0
2017-05-21T03:03:28.287Z,0
2017-05-21T03:04:38.210Z,0
2017-05-21T03:05:47.876Z,0
2017-05-21T03:06:57.476Z,0
2017-05-21T03:08:07.367Z,0
2017-05-21T03:09:16.956Z,0
2017-05-21T03:10:26.552Z,0
2017-05-21T03:11:36.144Z,0
2017-05-21T03:12:46.082Z,0
2017-05-21T03:13:55.984Z,0
2017-05-21T03:15:06.208Z,0
2017-05-21T03:16:15.486Z,0
2017-05-21T03:17:25.193Z,0
2017-05-21T03:18:35.131Z,0
2017-05-21T03:19:44.736Z,0
2017-05-21T03:20:55.001Z,0
2017-05-21T03:22:05.216Z,0
2017-05-21T03:23:14.813Z,0
2017-05-21T03:24:24.717Z,0
2017-05-21T03:25:34.630Z,0
2017-05-21T03:26:44.531Z,0
2017-05-21T03:27:54.136Z,0
2017-05-21T03:29:04.059Z,0
2017-05-21T03:30:13.670Z,0
2017-05-21T03:31:22.655Z,0
2017-05-21T03:32:31.952Z,0
2017-05-21T03:33:42.218Z,0
2017-05-21T03:34:52.141Z,0
2017-05-21T03:36:02.046Z,0
2017-05-21T03:37:11.647Z,0
2017-05-21T03:38:21.569Z,0
2017-05-21T03:39:31.796Z,0
2017-05-21T03:40:42.015Z,0
2017-05-21T03:41:51.626Z,0
2017-05-21T03:43:01.857Z,0
2017-05-21T03:44:12.083Z,0
2017-05-21T03:45:21.385Z,0
2017-05-21T03:46:31.594Z,0
2017-05-21T03:47:41.204Z,0
2017-05-21T03:48:51.426Z,0
2017-05-21T03:50:01.332Z,0
2017-05-21T03:51:11.299Z,0
2017-05-21T03:52:21.213Z,0
2017-05-21T03:53:31.141Z,0
2017-05-21T03:54:41.097Z,0
2017-05-21T03:55:51.299Z,0
2017-05-21T03:57:01.226Z,0
2017-05-21T03:58:10.521Z,0
2017-05-21T03:59:20.445Z,0
2017-05-21T04:00:30.356Z,0
2017-05-21T04:01:39.955Z,0
2017-05-21T04:02:49.582Z,0
2017-05-21T04:03:59.497Z,0
2017-05-21T04:05:09.717Z,0
2017-05-21T04:06:19.306Z,0
2017-05-21T04:07:29.214Z,5
2017-05-21T04:08:39.129Z,5
2017-05-21T04:09:48.759Z,5
2017-05-21T04:10:58.974Z,5
2017-05-21T04:12:08.887Z,5
2017-05-21T04:13:17.883Z,5
2017-05-21T04:14:27.472Z,5
2017-05-21T04:15:37.368Z,5
2017-05-21T04:16:47.577Z,5
2017-05-21T04:17:57.813Z,5
2017-05-21T04:19:08.031Z,5
2017-05-21T04:20:17.632Z,5
2017-05-21T04:21:27.222Z,5
2017-05-21T04:22:36.823Z,5
2017-05-21T04:23:46.423Z,5
2017-05-21T04:24:56.332Z,5
2017-05-21T04:26:06.551Z,5
2017-05-21T04:27:16.154Z,5
2017-05-21T04:28:26.067Z,5
2017-05-21T04:29:36.302Z,5
2017-05-21T04:30:46.208Z,10
2017-05-21T04:31:56.426Z,10
2017-05-21T04:33:06.576Z,10
2017-05-21T04:34:16.187Z,10
2017-05-21T04:35:25.487Z,10
2017-05-21T04:36:34.769Z,10
2017-05-21T04:37:44.685Z,10
2017-05-21T04:38:54.280Z,10
2017-05-21T04:40:03.880Z,10
2017-05-21T04:41:13.798Z,10
2017-05-21T04:42:23.698Z,10
2017-05-21T04:43:33.971Z,10
2017-05-21T04:44:43.868Z,10
2017-05-21T04:45:53.170Z,10
2017-05-21T04:47:03.417Z,10
2017-05-21T04:48:13.027Z,10
2017-05-21T04:49:22.635Z,10
2017-05-21T04:50:32.539Z,10
2017-05-21T04:51:42.138Z,15
2017-05-21T04:52:52.050Z,15
2017-05-21T04:54:01.950Z,15
2017-05-21T04:55:11.857Z,15
2017-05-21T04:56:22.116Z,15
2017-05-21T04:57:31.784Z,15
2017-05-21T04:58:41.092Z,20
2017-05-21T04:59:50.703Z,20
2017-05-21T05:01:00.913Z,20
2017-05-21T05:02:10.819Z,20
2017-05-21T05:03:20.416Z,25
2017-05-21T05:04:29.397Z,25
2017-05-21T05:05:38.993Z,25
2017-05-21T05:06:49.200Z,30
2017-05-21T05:07:58.792Z,30
2017-05-21T05:09:08.714Z,30
2017-05-21T05:10:18.631Z,35
2017-05-21T05:11:27.616Z,40
2017-05-21T05:12:37.837Z,45
2017-05-21T05:13:47.447Z,45
2017-05-21T05:14:57.061Z,45
2017-05-21T05:16:07.279Z,45
2017-05-21T05:17:17.184Z,50
2017-05-21T05:18:27.397Z,50
2017-05-21T05:19:37.609Z,50
2017-05-21T05:20:47.521Z,50
2017-05-21T05:21:57.126Z,50
2017-05-21T05:23:06.732Z,50
2017-05-21T05:24:16.339Z,50
2017-05-21T05:25:26.563Z,50
2017-05-21T05:26:36.162Z,50
2017-05-21T05:27:45.777Z,50
2017-05-21T05:28:55.412Z,50
2017-05-21T05:30:05.322Z,50
2017-05-21T05:31:15.223Z,50
2017-05-21T05:32:24.822Z,50
2017-05-21T05:33:34.754Z,50
2017-05-21T05:34:44.354Z,50
2017-05-21T05:35:54.271Z,55
2017-05-21T05:39:36.223Z,55
2017-05-21T05:43:18.535Z,55
2017-05-21T05:44:27.529Z,55
2017-05-21T05:45:37.449Z,55
2017-05-21T05:46:46.748Z,55
2017-05-21T05:47:56.361Z,60
2017-05-21T05:49:06.273Z,60
2017-05-21T05:50:16.184Z,60
2017-05-21T05:51:26.089Z,60
2017-05-21T05:52:35.997Z,60
2017-05-21T05:53:45.599Z,60
2017-05-21T05:54:55.213Z,60
2017-05-21T05:56:04.840Z,65
2017-05-21T05:57:14.455Z,65
2017-05-21T05:58:24.363Z,65
2017-05-21T05:59:33.987Z,65
2017-05-21T06:00:44.220Z,70
2017-05-21T06:01:54.439Z,70
2017-05-21T06:03:04.657Z,70
2017-05-21T06:04:14.565Z,70
2017-05-21T06:05:24.169Z,75
2017-05-21T06:06:34.382Z,75
2017-05-21T06:07:44.298Z,75
2017-05-21T06:08:54.211Z,80
2017-05-21T06:10:04.133Z,80
2017-05-21T06:11:14.338Z,80
2017-05-21T06:12:24.721Z,80
2017-05-21T06:13:34.362Z,85
2017-05-21T06:14:44.276Z,85
2017-05-21T06:15:53.895Z,85
2017-05-21T06:17:03.825Z,85
2017-05-21T06:18:13.725Z,85
2017-05-21T06:19:23.034Z,85
2017-05-21T06:20:32.952Z,85
2017-05-21T06:21:41.937Z,85
2017-05-21T06:22:52.156Z,80
2017-05-21T06:24:02.366Z,85
2017-05-21T06:25:12.278Z,90
2017-05-21T06:26:22.193Z,90
2017-05-21T06:27:31.812Z,85
2017-05-21T06:28:41.121Z,75
2017-05-21T06:29:50.458Z,70
2017-05-21T06:31:00.053Z,65
2017-05-21T06:32:09.656Z,55
2017-05-21T06:33:19.568Z,45
2017-05-21T06:34:29.792Z,40
2017-05-21T06:35:39.396Z,35
2017-05-21T06:36:49.000Z,35
2017-05-21T06:37:58.911Z,35
2017-05-21T06:39:08.834Z,35
2017-05-21T06:40:18.443Z,35
2017-05-21T06:41:28.660Z,35
2017-05-21T06:42:38.892Z,35
2017-05-21T06:43:49.303Z,40
2017-05-21T06:44:58.911Z,45
2017-05-21T06:46:09.143Z,50
2017-05-21T06:47:19.363Z,65
2017-05-21T06:48:29.866Z,85
2017-05-21T06:49:39.854Z,95
2017-05-21T06:50:49.176Z,100
2017-05-21T06:51:58.529Z,115
2017-05-21T06:53:08.739Z,140
2017-05-21T06:54:18.663Z,170
2017-05-21T06:55:28.576Z,190
2017-05-21T06:56:38.183Z,230
2017-05-21T06:57:48.113Z,320
2017-05-21T06:58:57.728Z,280
2017-05-21T07:00:07.326Z,280
2017-05-21T07:01:17.542Z,265
2017-05-21T07:02:27.454Z,260
2017-05-21T07:03:37.063Z,310
2017-05-21T07:04:47.281Z,355
2017-05-21T07:05:57.498Z,375
2017-05-21T07:07:07.399Z,370
2017-05-21T07:08:17.298Z,360
2017-05-21T07:09:26.920Z,360
2017-05-21T07:10:36.827Z,345
2017-05-21T07:11:46.126Z,345
2017-05-21T07:12:56.037Z,360
2017-05-21T07:14:06.265Z,400
2017-05-21T07:15:15.867Z,555
2017-05-21T07:16:25.791Z,735
2017-05-21T07:17:35.083Z,845
2017-05-21T07:18:44.087Z,910
2017-05-21T07:19:53.691Z,915
2017-05-21T07:21:03.297Z,905
2017-05-21T07:22:12.607Z,915
2017-05-21T07:23:22.214Z,920
2017-05-21T07:24:32.131Z,915
2017-05-21T07:25:42.401Z,955
2017-05-21T07:26:52.625Z,925
2017-05-21T07:28:02.551Z,885
2017-05-21T07:29:12.456Z,965
2017-05-21T07:30:22.060Z,940
2017-05-21T07:31:31.973Z,935
2017-05-21T07:32:41.567Z,940
2017-05-21T07:33:50.871Z,920
2017-05-21T07:35:00.479Z,880
2017-05-21T07:36:10.091Z,920
2017-05-21T07:37:19.989Z,1015
2017-05-21T07:38:29.305Z,1040
2017-05-21T07:39:38.912Z,1100
2017-05-21T07:40:48.885Z,1115
2017-05-21T07:41:59.176Z,985
2017-05-21T07:43:09.089Z,970
2017-05-21T07:44:18.998Z,1050
2017-05-21T07:45:28.962Z,945
2017-05-21T07:46:38.890Z,990
2017-05-21T07:47:48.195Z,1240
2017-05-21T07:48:57.819Z,1240
2017-05-21T07:50:07.748Z,1160
2017-05-21T07:51:17.953Z,1220
2017-05-21T07:52:27.245Z,1210
2017-05-21T07:53:37.156Z,1195
2017-05-21T07:54:47.054Z,1165
2017-05-21T07:55:56.659Z,1240
2017-05-21T07:57:07.233Z,1165
2017-05-21T07:58:16.229Z,1055
2017-05-21T07:59:25.843Z,1095
2017-05-21T08:00:35.780Z,1070
2017-05-21T08:01:45.075Z,1155
2017-05-21T08:02:54.990Z,1125
2017-05-21T08:04:04.595Z,1255
2017-05-21T08:05:14.840Z,1245
2017-05-21T08:06:24.753Z,1145
2017-05-21T08:07:34.669Z,965
2017-05-21T08:08:44.885Z,985
2017-05-21T08:09:54.507Z,1110
2017-05-21T08:11:04.154Z,1135
2017-05-21T08:12:13.783Z,1145
2017-05-21T08:13:23.711Z,1125
2017-05-21T08:14:33.011Z,1130
2017-05-21T08:15:43.009Z,1205
2017-05-21T08:16:52.610Z,1245
2017-05-21T08:18:02.208Z,1200
2017-05-21T08:19:11.811Z,1150
2017-05-21T08:20:22.030Z,1055
2017-05-21T08:21:31.332Z,1225
2017-05-21T08:22:40.944Z,1220
2017-05-21T08:23:50.854Z,1160
2017-05-21T08:25:00.169Z,1250
2017-05-21T08:26:10.379Z,1215
2017-05-21T08:27:20.297Z,1250
2017-05-21T08:28:30.205Z,1375
2017-05-21T08:29:40.111Z,1290
2017-05-21T08:30:49.413Z,1300
2017-05-21T08:31:59.019Z,1195
2017-05-21T08:33:09.328Z,1230
2017-05-21T08:34:19.254Z,1160
2017-05-21T08:35:29.493Z,1180
2017-05-21T08:36:39.102Z,1200
2017-05-21T08:37:49.328Z,1225
2017-05-21T08:38:59.578Z,1310
2017-05-21T08:40:09.493Z,1285
2017-05-21T08:41:19.406Z,1260
2017-05-21T08:42:28.712Z,1445
2017-05-21T08:43:37.724Z,1470
2017-05-21T08:44:47.129Z,1330
2017-05-21T08:45:57.036Z,1330
2017-05-21T08:47:06.647Z,1250
2017-05-21T08:48:16.587Z,1270
2017-05-21T08:49:26.505Z,1320
2017-05-21T08:50:36.424Z,1230
2017-05-21T08:51:46.074Z,1085
2017-05-21T08:52:55.706Z,520
2017-05-21T08:54:05.964Z,110
2017-05-21T08:55:15.885Z,80
2017-05-21T08:56:25.806Z,65
2017-05-21T08:57:35.749Z,55
2017-05-21T08:58:45.386Z,50
2017-05-21T08:59:55.018Z,45
2017-05-21T09:01:04.637Z,40
2017-05-21T09:02:14.864Z,35
2017-05-21T09:03:24.471Z,35
2017-05-21T09:04:34.085Z,35
2017-05-21T09:05:44.025Z,30
2017-05-21T09:06:53.628Z,30
2017-05-21T09:08:02.944Z,30
2017-05-21T09:09:12.858Z,30
2017-05-21T09:10:22.475Z,30
2017-05-21T09:11:32.411Z,30
2017-05-21T09:12:43.829Z,30
2017-05-21T09:13:54.069Z,30
2017-05-21T09:15:04.262Z,30
2017-05-21T09:16:15.557Z,30
2017-05-21T09:17:25.751Z,30
2017-05-21T09:18:35.085Z,30
2017-05-21T09:19:45.093Z,30
2017-05-21T09:20:54.665Z,30
2017-05-21T09:22:04.243Z,30
2017-05-21T09:23:14.033Z,30
2017-05-21T09:24:24.497Z,30
2017-05-21T09:25:34.060Z,30
2017-05-21T09:26:43.448Z,30
2017-05-21T09:27:53.384Z,30
2017-05-21T09:29:03.139Z,30
2017-05-21T09:30:13.294Z,30
2017-05-21T09:31:23.763Z,30
2017-05-21T09:32:34.238Z,30
2017-05-21T09:33:45.418Z,30
2017-05-21T09:34:55.607Z,30
2017-05-21T09:36:05.037Z,30
2017-05-21T09:37:15.005Z,30
2017-05-21T09:38:24.956Z,30
2017-05-21T09:39:34.895Z,30
2017-05-21T09:40:44.837Z,30
2017-05-21T09:41:54.327Z,30
2017-05-21T09:43:04.273Z,30
2017-05-21T09:44:14.453Z,30
2017-05-21T09:45:24.365Z,30
2017-05-21T09:46:34.280Z,30
2017-05-21T09:47:44.193Z,30
2017-05-21T09:48:53.501Z,30
2017-05-21T09:50:03.170Z,25
2017-05-21T09:51:13.396Z,25
2017-05-21T09:52:23.617Z,25
2017-05-21T09:53:33.535Z,25
2017-05-21T09:54:43.448Z,25
2017-05-21T09:55:53.086Z,25
2017-05-21T09:57:03.008Z,25
2017-05-21T09:58:13.256Z,25
2017-05-21T09:59:23.884Z,25
2017-05-21T10:00:33.991Z,25
2017-05-21T10:01:43.900Z,25
2017-05-21T10:02:54.156Z,25
2017-05-21T10:04:04.482Z,25
2017-05-21T10:05:14.472Z,25
2017-05-21T10:06:24.177Z,25
2017-05-21T10:07:33.622Z,25
2017-05-21T10:08:43.221Z,25
2017-05-21T10:09:53.791Z,25
2017-05-21T10:11:03.480Z,25
2017-05-21T10:12:13.387Z,25
2017-05-21T10:13:23.370Z,25
2017-05-21T10:14:33.079Z,25
2017-05-21T10:15:43.005Z,25
2017-05-21T10:16:52.609Z,25
2017-05-21T10:18:02.524Z,25
2017-05-21T10:19:12.438Z,25
2017-05-21T10:20:21.733Z,20
2017-05-21T10:21:31.658Z,20
2017-05-21T10:22:40.952Z,20
2017-05-21T10:23:50.881Z,20
2017-05-21T10:25:00.844Z,20
2017-05-21T10:26:10.447Z,20
2017-05-21T10:27:20.094Z,20
2017-05-21T10:28:30.167Z,20
2017-05-21T10:29:40.091Z,20
2017-05-21T10:30:50.090Z,20
2017-05-21T10:32:00.086Z,20
2017-05-21T10:33:10.345Z,20
2017-05-21T10:34:20.413Z,20
2017-05-21T10:35:30.336Z,20
2017-05-21T10:36:40.607Z,20
2017-05-21T10:37:50.268Z,20
2017-05-21T10:38:59.902Z,20
2017-05-21T10:40:09.966Z,20
2017-05-21T10:41:19.587Z,20
2017-05-21T10:42:29.208Z,20
2017-05-21T10:43:38.820Z,25
2017-05-21T10:44:48.433Z,25
2017-05-21T10:45:58.360Z,25
2017-05-21T10:47:07.988Z,25
2017-05-21T10:48:17.591Z,25
2017-05-21T10:49:27.812Z,25
2017-05-21T10:50:37.744Z,25
2017-05-21T10:51:47.778Z,25
2017-05-21T10:52:57.668Z,25
2017-05-21T10:54:07.579Z,25
2017-05-21T10:55:17.177Z,25
2017-05-21T10:56:26.775Z,25
2017-05-21T10:57:36.388Z,25
2017-05-21T10:58:46.641Z,25
2017-05-21T10:59:55.937Z,25
2017-05-21T11:01:05.849Z,25
2017-05-21T11:02:15.772Z,25
2017-05-21T11:03:25.368Z,25
2017-05-21T11:04:35.586Z,25
2017-05-21T11:05:45.822Z,25
2017-05-21T11:06:55.450Z,25
2017-05-21T11:08:05.351Z,30
2017-05-21T11:09:14.951Z,30
2017-05-21T11:10:23.945Z,30
2017-05-21T11:11:33.850Z,30
2017-05-21T11:12:43.460Z,30
2017-05-21T11:13:53.688Z,30
2017-05-21T11:15:03.751Z,35
2017-05-21T11:16:13.667Z,35
2017-05-21T11:17:23.273Z,30
2017-05-21T11:18:32.886Z,30
2017-05-21T11:19:42.485Z,30
2017-05-21T11:20:52.751Z,30
2017-05-21T11:22:02.039Z,35
2017-05-21T11:23:11.946Z,35
2017-05-21T11:24:21.239Z,35
2017-05-21T11:25:31.458Z,35
2017-05-21T11:26:41.678Z,35
2017-05-21T11:27:51.598Z,35
2017-05-21T11:29:01.805Z,35
2017-05-21T11:30:11.412Z,35
2017-05-21T11:31:21.011Z,35
2017-05-21T11:32:31.376Z,35
2017-05-21T11:33:41.621Z,35
2017-05-21T11:34:51.244Z,35
2017-05-21T11:36:01.155Z,35
2017-05-21T11:37:11.069Z,35
2017-05-21T11:38:21.630Z,35
2017-05-21T11:39:31.533Z,35
2017-05-21T11:40:41.762Z,35
2017-05-21T11:41:50.782Z,35
2017-05-21T11:43:00.690Z,35
2017-05-21T11:44:10.469Z,35
2017-05-21T11:45:20.379Z,35
2017-05-21T11:46:30.583Z,35
2017-05-21T11:47:40.199Z,35
2017-05-21T11:48:49.812Z,35
2017-05-21T11:49:59.458Z,35
2017-05-21T11:51:09.372Z,35
2017-05-21T11:52:19.590Z,35
2017-05-21T11:53:29.506Z,35
2017-05-21T11:54:39.712Z,35
2017-05-21T11:55:49.659Z,30
2017-05-21T11:56:58.968Z,30
2017-05-21T11:58:08.877Z,35
2017-05-21T11:59:18.777Z,35
2017-05-21T12:00:28.063Z,35
2017-05-21T12:01:37.772Z,35
2017-05-21T12:02:47.998Z,35
2017-05-21T12:03:57.590Z,35
2017-05-21T12:05:07.799Z,35
2017-05-21T12:06:17.098Z,35
2017-05-21T12:07:26.694Z,30
2017-05-21T12:08:36.595Z,30
2017-05-21T12:09:46.817Z,30
2017-05-21T12:10:56.732Z,30
2017-05-21T12:12:06.950Z,30
2017-05-21T12:13:17.000Z,30
2017-05-21T12:14:26.920Z,30
2017-05-21T12:15:37.134Z,30
2017-05-21T12:16:46.739Z,30
2017-05-21T12:17:56.344Z,30
2017-05-21T12:19:06.411Z,30
2017-05-21T12:20:16.624Z,30
2017-05-21T12:21:26.828Z,30
2017-05-21T12:22:36.744Z,25
2017-05-21T12:23:46.974Z,25
2017-05-21T12:24:56.882Z,25
2017-05-21T12:26:06.783Z,25
2017-05-21T12:27:16.687Z,25
2017-05-21T12:28:26.927Z,25
2017-05-21T12:29:37.145Z,25
2017-05-21T12:30:46.896Z,25
2017-05-21T12:31:56.489Z,25
2017-05-21T12:33:06.094Z,30
2017-05-21T12:34:15.396Z,30
2017-05-21T12:35:25.306Z,30
2017-05-21T12:36:34.944Z,30
2017-05-21T12:37:44.565Z,30
2017-05-21T12:38:54.179Z,30
2017-05-21T12:40:03.482Z,30
2017-05-21T12:41:13.707Z,30
2017-05-21T12:42:23.769Z,30
2017-05-21T12:43:33.992Z,30
2017-05-21T12:44:43.897Z,30
2017-05-21T12:45:54.103Z,30
2017-05-21T12:47:04.011Z,30
2017-05-21T12:48:13.915Z,30
2017-05-21T12:49:23.535Z,30
2017-05-21T12:50:33.463Z,30
2017-05-21T12:51:43.057Z,30
2017-05-21T12:52:52.983Z,30
2017-05-21T12:54:03.342Z,30
2017-05-21T12:55:12.950Z,30
2017-05-21T12:56:23.191Z,30
2017-05-21T12:57:32.845Z,30
2017-05-21T12:58:42.839Z,30
2017-05-21T12:59:52.866Z,30
2017-05-21T13:01:03.071Z,30
2017-05-21T13:02:12.685Z,25
2017-05-21T13:03:22.604Z,25
2017-05-21T13:04:32.826Z,25
2017-05-21T13:05:42.288Z,25
2017-05-21T13:06:52.499Z,25
2017-05-21T13:08:02.430Z,25
2017-05-21T13:09:12.344Z,25
2017-05-21T13:10:21.698Z,25
2017-05-21T13:11:31.605Z,25
2017-05-21T13:12:41.525Z,25
2017-05-21T13:13:51.730Z,25
2017-05-21T13:15:01.693Z,25
2017-05-21T13:16:11.628Z,25
2017-05-21T13:17:21.464Z,25
2017-05-21T13:18:31.512Z,25
2017-05-21T13:19:40.526Z,25
2017-05-21T13:20:49.830Z,25
2017-05-21T13:21:58.817Z,25
2017-05-21T13:23:08.515Z,25
2017-05-21T13:24:18.421Z,25
2017-05-21T13:25:28.057Z,25
2017-05-21T13:26:37.995Z,25
2017-05-21T13:27:47.908Z,25
2017-05-21T13:28:57.654Z,25
2017-05-21T13:30:07.275Z,25
2017-05-21T13:31:17.182Z,25
2017-05-21T13:32:26.490Z,25
2017-05-21T13:33:36.162Z,25
2017-05-21T13:34:45.625Z,25
2017-05-21T13:35:55.531Z,25
2017-05-21T13:37:05.169Z,25
2017-05-21T13:38:14.777Z,25
2017-05-21T13:39:24.704Z,25
2017-05-21T13:40:34.775Z,25
2017-05-21T13:41:44.695Z,25
2017-05-21T13:42:54.326Z,25
2017-05-21T13:44:04.246Z,25
2017-05-21T13:45:13.850Z,25
2017-05-21T13:46:23.938Z,25
2017-05-21T13:47:33.553Z,25
2017-05-21T13:48:43.476Z,25
2017-05-21T13:49:53.101Z,25
2017-05-21T13:51:02.393Z,25
2017-05-21T13:52:12.334Z,25
2017-05-21T13:53:21.638Z,25
2017-05-21T13:54:31.556Z,25
2017-05-21T13:55:41.187Z,30
2017-05-21T13:56:51.422Z,30
2017-05-21T13:58:01.864Z,30
2017-05-21T13:59:11.783Z,30
2017-05-21T14:00:21.703Z,30
2017-05-21T14:01:31.038Z,30
2017-05-21T14:02:40.664Z,30
2017-05-21T14:03:50.663Z,30
2017-05-21T14:05:00.067Z,30
2017-05-21T14:06:09.739Z,30
2017-05-21T14:07:19.688Z,30
2017-05-21T14:08:29.069Z,30
2017-05-21T14:09:39.423Z,30
2017-05-21T14:10:48.434Z,30
2017-05-21T14:11:58.043Z,30
2017-05-21T14:13:07.672Z,30
2017-05-21T14:14:17.608Z,30
2017-05-21T14:15:27.396Z,30
2017-05-21T14:16:37.347Z,30
2017-05-21T14:17:46.368Z,30
2017-05-21T14:18:55.696Z,30
2017-05-21T14:20:05.657Z,30
2017-05-21T14:21:15.427Z,25
2017-05-21T14:22:25.205Z,25
2017-05-21T14:23:34.854Z,25
2017-05-21T14:24:44.472Z,25
2017-05-21T14:25:53.231Z,25
2017-05-21T14:27:03.058Z,25
2017-05-21T14:28:12.750Z,25
2017-05-21T14:29:22.362Z,25
2017-05-21T14:30:32.302Z,25
2017-05-21T14:31:41.680Z,25
2017-05-21T14:32:51.517Z,30
2017-05-21T14:34:01.822Z,25
2017-05-21T14:35:11.144Z,25
2017-05-21T14:36:19.838Z,30
2017-05-21T14:37:30.460Z,25
2017-05-21T14:38:40.699Z,25
2017-05-21T14:39:50.326Z,30
2017-05-21T14:41:00.256Z,30
2017-05-21T14:42:10.189Z,30
2017-05-21T14:43:20.183Z,25
2017-05-21T14:44:29.989Z,25
2017-05-21T14:45:39.484Z,25
2017-05-21T14:46:49.105Z,25
2017-05-21T14:47:58.478Z,25
2017-05-21T14:49:08.786Z,25
2017-05-21T14:50:19.070Z,25
2017-05-21T14:51:28.777Z,25
2017-05-21T14:52:39.133Z,25
2017-05-21T14:53:48.819Z,25
2017-05-21T14:54:57.570Z,25
2017-05-21T14:56:06.626Z,25
2017-05-21T14:57:16.318Z,25
2017-05-21T14:58:26.913Z,25
2017-05-21T14:59:37.514Z,25
2017-05-21T15:00:47.509Z,25
2017-05-21T15:01:57.292Z,25
2017-05-21T15:03:06.952Z,25
2017-05-21T15:04:17.592Z,25
2017-05-21T15:05:28.214Z,25
2017-05-21T15:06:38.453Z,25
2017-05-21T15:07:48.479Z,25
2017-05-21T15:08:58.115Z,25
2017-05-21T15:10:07.716Z,25
2017-05-21T15:11:17.939Z,25
2017-05-21T15:12:28.180Z,25
2017-05-21T15:13:38.412Z,25
2017-05-21T15:14:47.701Z,25
2017-05-21T15:15:57.616Z,25
2017-05-21T15:17:07.226Z,25
2017-05-21T15:18:17.152Z,25
2017-05-21T15:19:27.379Z,25
2017-05-21T15:20:37.611Z,25
2017-05-21T15:21:47.516Z,25
2017-05-21T15:22:57.433Z,25
2017-05-21T15:24:07.668Z,25
2017-05-21T15:25:17.904Z,25
2017-05-21T15:26:27.830Z,25
2017-05-21T15:27:38.073Z,25
2017-05-21T15:28:48.169Z,25
2017-05-21T15:29:58.030Z,25
2017-05-21T15:31:09.223Z,25
2017-05-21T15:32:19.521Z,25
2017-05-21T15:33:29.454Z,25
2017-05-21T15:34:38.752Z,25
2017-05-21T15:35:48.088Z,25
2017-05-21T15:36:57.557Z,25
2017-05-21T15:38:07.787Z,20
2017-05-21T15:39:17.715Z,20
2017-05-21T15:40:27.034Z,20
2017-05-21T15:41:36.957Z,20
2017-05-21T15:42:46.896Z,20
2017-05-21T15:43:56.207Z,20
2017-05-21T15:45:06.436Z,20
2017-05-21T15:46:16.383Z,20
2017-05-21T15:47:25.704Z,20
2017-05-21T15:48:35.778Z,20
2017-05-21T15:49:45.413Z,20
2017-05-21T15:50:55.322Z,20
2017-05-21T15:52:04.925Z,20
2017-05-21T15:53:14.588Z,20
2017-05-21T15:54:24.677Z,20
2017-05-21T15:55:34.602Z,20
2017-05-21T15:56:44.220Z,20
2017-05-21T15:57:54.142Z,20
2017-05-21T15:59:04.053Z,20
2017-05-21T16:00:14.328Z,20
2017-05-21T16:01:24.270Z,20
2017-05-21T16:02:33.907Z,25
2017-05-21T16:03:43.544Z,25
2017-05-21T16:04:53.147Z,25
2017-05-21T16:06:02.306Z,25
2017-05-21T16:07:11.605Z,20
2017-05-21T16:08:21.265Z,20
2017-05-21T16:09:31.510Z,20
2017-05-21T16:10:41.736Z,20
2017-05-21T16:11:51.494Z,20
2017-05-21T16:13:01.442Z,20
2017-05-21T16:14:11.654Z,20
2017-05-21T16:15:20.662Z,20
2017-05-21T16:16:30.883Z,20
2017-05-21T16:17:40.973Z,20
2017-05-21T16:18:50.603Z,20
2017-05-21T16:19:59.914Z,20
2017-05-21T16:21:10.144Z,20
2017-05-21T16:22:19.766Z,20
2017-05-21T16:23:29.826Z,15
2017-05-21T16:24:39.429Z,15
2017-05-21T16:25:49.343Z,20
2017-05-21T16:26:58.944Z,20
2017-05-21T16:28:08.607Z,20
2017-05-21T16:29:18.878Z,20
2017-05-21T16:30:28.799Z,20
2017-05-21T16:31:38.101Z,20
2017-05-21T16:32:47.411Z,15
2017-05-21T16:33:57.336Z,15
2017-05-21T16:35:07.652Z,15
2017-05-21T16:36:17.260Z,15
2017-05-21T16:37:27.196Z,15
2017-05-21T16:38:36.883Z,15
2017-05-21T16:39:47.106Z,15
2017-05-21T16:40:56.865Z,15
2017-05-21T16:42:06.775Z,15
2017-05-21T16:43:17.026Z,15